Zimmerman, MN (55398)

5:27 PM CDT on August 27, 2014 (GMT -0500)
Where City Meets Country | Change Station
CLOSE
Current Station
Personal Weather Station
Location: Elk River, MN
Elevation: 985 ft
Nearby Weather Stations

Elev 985 ft 45.36 °N, 93.60 °W | Updated 8 seconds ago

Partly Cloudy
Partly Cloudy
76.7 °F
Feels Like 78 °F
N
0.0
Wind Variable Wind from ESE
Gusts 0.0 mph

Today
High -- | Low -- °F
--% Chance of Precip.
Yesterday
High -- | Low -- °F
Precip. -- in
6:29 AM 8:01 PM
Waxing Crescent, 5% visible
Pressure 30.16 in
Visibility 10.0 miles
Clouds Mostly Cloudy 4000 ft
Heat Index 78 °F
Dew Point 65 °F
Humidity 68%
Rainfall 0.00 in
Snow Depth Not available.
UV 2 out of 12
Pollen 8.40 out of 12
Ozone Good
PM2.5 Good
Flu Activity Not available.
METAR KPNM 272201Z AUTO 34002KT 10SM BKN040 22/14 A3016 RMK AO2

More Conditions Fewer Conditions

Pressure 30.16 in
Visibility 10.0 miles
Clouds Mostly Cloudy 4000 ft
Heat Index 78 °F
Dew Point 65 °F
Humidity 68%
Rainfall 0.00 in
Snow Depth Not available.
UV 2 out of 12
Pollen 8.40 out of 12
Ozone Good
PM2.5 Good
Flu Activity Not available.
METAR KPNM 272201Z AUTO 34002KT 10SM BKN040 22/14 A3016 RMK AO2

More Conditions Fewer Conditions

10-Day Weather Forecast

Almanac

Astronomy

Aug. 27, 2014 Rise Set
Actual Time 6:29 AM CDT 8:01 PM CDT
Civil Twilight 5:58 AM CDT 8:31 PM CDT
Nautical Twilight 5:21 AM CDT 9:09 PM CDT
Astronomical Twilight 4:40 AM CDT 9:49 PM CDT
Moon 8:34 AM CDT 8:44 PM CDT
Length of Visible Light 14h 33m
Length of Day
13h 31m
Tomorrow will be 3m 1s shorter.
Waxing Crescent, 5% of the Moon is Illuminated
Today
Waxing Crescent
Sep 2
First Quarter
Sep 8
Full
Sep 15
Last Quarter
Sep 24
New

Today's Extremes

State Highs State Lows

Community

WunderPhotos

Upload Photos

1,747,806 photos uploaded!

Nearby

Air Quality

  Air Quality AQ Index Pollutant
Yesterday Good
OZONE
Yesterday Good
PM2.5
Current Good
OZONE
Current Good
PM2.5
Wednesday Good
OZONE
Wednesday Good
PM2.5
Thursday Good
OZONE
Thursday Good
PM2.5
Friday Good
OZONE
Friday Good
PM2.5
Saturday Good
PM2.5
Saturday Good
OZONE
Sunday Moderate
OZONE
Sunday Moderate
PM2.5
Monday Good
OZONE
Monday Good
PM2.5

Snow Depth

Station Depth Elevation
No new snow has been reported.

Earthquake Activity

City Distance Mag. Time & Date
No recent earthquake activity has been reported nearby.
Minimum magnitude displayed is 2.5.

Coastal Water Temperatures

Place Temperature
No Stations Reporting

Nearby Weather Stations